Huvudsida
METAR-TAF:

METAR-TAF

Flygplatser :

Rimini-Miramares flygplats

Rimini, Italien

latitud: 44-02N, longitud: 012-37E, höjd: 12 m

Aktuellt väderrapport

Denna rapport gjordes för 33 minuter sedan, klockan 22:20 UTC
Vind 7 kt från ost
Temperatur 12°C
Fuktighet 88%
Tryck 1006 hPa
Sikt 10 km eller mer

METAR: LIPR 152220Z AUTO 10007KT 9999 FEW140/// 12/10 Q1006

Tid: 23:53 (22:53 UTC)

Väderprognos

Denna rapport gjordes för 2 timmar och 53 minuter sedan, klockan 20:00 UTC
Prognos gäller från 15 kl. 21 UTC till 16 kl. 06 UTC
Vind 10 kt från sydväst
Sikt 10 km eller mer
Spridda moln på en höjd av 2000 ft
Brutna moln på en höjd av 5000 ft

TAF: LIPR 152000Z 1521/1606 22010KT 9999 SCT020 BKN050

Aktuella väderrapporter och prognoser från 4000 flygplatser (METAR- och TAF-rapporter).

De tillgängliga stationerna syns som gula och röda prickar på kartan.

För musen över prickarna för att se namnen på stationerna.

Klicka sedan för att få väderrapporter och prognoser.

För att ändra kartan: Klicka på de gröna knapparna med ett svart kors på för att zooma in; den gröna knappen med ett streck på för att zooma ut; eller på de gröna pilarna för angränsande kartor.


METAR-TAF: